sensor_id;sensor_type;location;lat;lon;timestamp;pressure;altitude;pressure_sealevel;temperature;humidity
50349;BME280;36250;48.740;22.174;2023-06-22T00:01:14;100591.09;;;19.99;84.55
50349;BME280;36250;48.740;22.174;2023-06-22T00:03:39;100582.56;;;19.96;84.06
50349;BME280;36250;48.740;22.174;2023-06-22T00:06:04;100593.44;;;19.92;83.58
50349;BME280;36250;48.740;22.174;2023-06-22T00:08:30;100588.50;;;19.89;84.04
50349;BME280;36250;48.740;22.174;2023-06-22T00:10:55;100581.31;;;19.88;84.46
50349;BME280;36250;48.740;22.174;2023-06-22T00:13:20;100583.13;;;19.79;84.70
50349;BME280;36250;48.740;22.174;2023-06-22T00:15:46;100590.91;;;19.77;84.91
50349;BME280;36250;48.740;22.174;2023-06-22T00:18:11;100594.00;;;19.76;85.14
50349;BME280;36250;48.740;22.174;2023-06-22T00:20:38;100587.56;;;19.80;84.95
50349;BME280;36250;48.740;22.174;2023-06-22T00:23:06;100590.22;;;19.85;84.56
50349;BME280;36250;48.740;22.174;2023-06-22T00:25:39;100584.09;;;19.88;84.64
50349;BME280;36250;48.740;22.174;2023-06-22T00:28:07;100589.00;;;19.91;84.44
50349;BME280;36250;48.740;22.174;2023-06-22T00:30:33;100592.44;;;19.83;84.47
50349;BME280;36250;48.740;22.174;2023-06-22T00:32:59;100590.84;;;19.82;84.47
50349;BME280;36250;48.740;22.174;2023-06-22T00:35:26;100587.47;;;19.85;84.47
50349;BME280;36250;48.740;22.174;2023-06-22T00:37:58;100593.50;;;19.87;84.40
50349;BME280;36250;48.740;22.174;2023-06-22T00:40:28;100589.00;;;19.91;83.92
50349;BME280;36250;48.740;22.174;2023-06-22T00:42:54;100592.28;;;19.93;83.68
50349;BME280;36250;48.740;22.174;2023-06-22T00:45:20;100591.69;;;19.96;83.65
50349;BME280;36250;48.740;22.174;2023-06-22T00:47:48;100594.38;;;20.01;82.92
50349;BME280;36250;48.740;22.174;2023-06-22T00:50:18;100595.13;;;19.88;83.20
50349;BME280;36250;48.740;22.174;2023-06-22T00:52:48;100606.97;;;19.75;83.76
50349;BME280;36250;48.740;22.174;2023-06-22T00:55:13;100608.69;;;19.71;84.31
50349;BME280;36250;48.740;22.174;2023-06-22T00:57:41;100612.88;;;19.68;84.09
50349;BME280;36250;48.740;22.174;2023-06-22T01:00:07;100616.69;;;19.73;84.12
50349;BME280;36250;48.740;22.174;2023-06-22T01:02:34;100635.03;;;19.82;83.80
50349;BME280;36250;48.740;22.174;2023-06-22T01:04:59;100636.06;;;19.86;83.75
50349;BME280;36250;48.740;22.174;2023-06-22T01:07:42;100642.66;;;19.90;83.70
50349;BME280;36250;48.740;22.174;2023-06-22T01:10:25;100644.06;;;19.88;83.73
50349;BME280;36250;48.740;22.174;2023-06-22T01:12:55;100637.06;;;19.77;83.74
50349;BME280;36250;48.740;22.174;2023-06-22T01:15:38;100623.72;;;19.65;84.39
50349;BME280;36250;48.740;22.174;2023-06-22T01:18:06;100622.50;;;19.52;84.69
50349;BME280;36250;48.740;22.174;2023-06-22T01:20:34;100616.63;;;19.40;85.33
50349;BME280;36250;48.740;22.174;2023-06-22T01:25:59;100617.88;;;19.29;86.00
50349;BME280;36250;48.740;22.174;2023-06-22T01:28:50;100621.44;;;19.30;85.95
50349;BME280;36250;48.740;22.174;2023-06-22T01:31:19;100607.69;;;19.25;85.92
50349;BME280;36250;48.740;22.174;2023-06-22T01:33:49;100600.63;;;19.19;86.50
50349;BME280;36250;48.740;22.174;2023-06-22T01:36:16;100604.78;;;19.16;86.61
50349;BME280;36250;48.740;22.174;2023-06-22T01:38:42;100613.22;;;19.25;86.57
50349;BME280;36250;48.740;22.174;2023-06-22T01:41:08;100619.19;;;19.32;86.54
50349;BME280;36250;48.740;22.174;2023-06-22T01:43:35;100617.03;;;19.29;86.14
50349;BME280;36250;48.740;22.174;2023-06-22T01:46:02;100617.94;;;19.24;86.38
50349;BME280;36250;48.740;22.174;2023-06-22T01:48:28;100613.16;;;19.30;85.71
50349;BME280;36250;48.740;22.174;2023-06-22T01:50:55;100607.69;;;19.25;85.90
50349;BME280;36250;48.740;22.174;2023-06-22T01:53:24;100608.75;;;19.29;85.83
50349;BME280;36250;48.740;22.174;2023-06-22T01:55:49;100606.44;;;19.36;85.61
50349;BME280;36250;48.740;22.174;2023-06-22T01:58:15;100614.38;;;19.42;85.18
50349;BME280;36250;48.740;22.174;2023-06-22T02:00:44;100620.97;;;19.46;84.66
50349;BME280;36250;48.740;22.174;2023-06-22T02:03:14;100621.47;;;19.48;84.56
50349;BME280;36250;48.740;22.174;2023-06-22T02:05:53;100626.84;;;19.40;84.71
50349;BME280;36250;48.740;22.174;2023-06-22T02:08:23;100621.44;;;19.30;85.13
50349;BME280;36250;48.740;22.174;2023-06-22T02:10:51;100615.31;;;19.33;84.83
50349;BME280;36250;48.740;22.174;2023-06-22T02:13:17;100632.66;;;19.38;84.63
50349;BME280;36250;48.740;22.174;2023-06-22T02:15:43;100630.94;;;19.42;84.47
50349;BME280;36250;48.740;22.174;2023-06-22T02:18:09;100626.50;;;19.46;84.21
50349;BME280;36250;48.740;22.174;2023-06-22T02:20:38;100627.53;;;19.50;84.29
50349;BME280;36250;48.740;22.174;2023-06-22T02:23:05;100633.25;;;19.54;83.88
50349;BME280;36250;48.740;22.174;2023-06-22T02:25:31;100632.81;;;19.47;84.33
50349;BME280;36250;48.740;22.174;2023-06-22T02:27:57;100627.16;;;19.38;84.26
50349;BME280;36250;48.740;22.174;2023-06-22T02:30:22;100628.81;;;19.34;84.66
50349;BME280;36250;48.740;22.174;2023-06-22T02:32:47;100630.75;;;19.39;84.62
50349;BME280;36250;48.740;22.174;2023-06-22T02:35:13;100630.13;;;19.42;84.19
50349;BME280;36250;48.740;22.174;2023-06-22T02:37:38;100630.66;;;19.44;84.09
50349;BME280;36250;48.740;22.174;2023-06-22T02:40:07;100633.13;;;19.45;83.93
50349;BME280;36250;48.740;22.174;2023-06-22T02:42:34;100645.34;;;19.39;83.77
50349;BME280;36250;48.740;22.174;2023-06-22T02:45:00;100645.31;;;19.21;84.43
50349;BME280;36250;48.740;22.174;2023-06-22T02:47:25;100651.53;;;19.08;85.23
50349;BME280;36250;48.740;22.174;2023-06-22T02:49:51;100655.31;;;18.93;85.50
50349;BME280;36250;48.740;22.174;2023-06-22T02:52:16;100656.03;;;18.80;86.27
50349;BME280;36250;48.740;22.174;2023-06-22T02:54:41;100666.22;;;18.79;86.69
50349;BME280;36250;48.740;22.174;2023-06-22T02:57:07;100670.16;;;18.73;87.29
50349;BME280;36250;48.740;22.174;2023-06-22T02:59:41;100667.53;;;18.63;88.16
50349;BME280;36250;48.740;22.174;2023-06-22T03:02:07;100667.53;;;18.63;88.29
50349;BME280;36250;48.740;22.174;2023-06-22T03:04:34;100662.69;;;18.74;88.28
50349;BME280;36250;48.740;22.174;2023-06-22T03:06:59;100662.38;;;18.80;87.96
50349;BME280;36250;48.740;22.174;2023-06-22T03:09:27;100664.47;;;18.88;87.71
50349;BME280;36250;48.740;22.174;2023-06-22T03:11:53;100668.50;;;18.96;87.33
50349;BME280;36250;48.740;22.174;2023-06-22T03:14:18;100661.47;;;19.09;87.15
50349;BME280;36250;48.740;22.174;2023-06-22T03:16:44;100670.91;;;19.26;86.57
50349;BME280;36250;48.740;22.174;2023-06-22T03:19:09;100675.94;;;19.43;86.18
50349;BME280;36250;48.740;22.174;2023-06-22T03:21:35;100686.78;;;19.58;85.45
50349;BME280;36250;48.740;22.174;2023-06-22T03:24:02;100678.94;;;19.65;85.44
50349;BME280;36250;48.740;22.174;2023-06-22T03:26:28;100686.34;;;19.70;84.27
50349;BME280;36250;48.740;22.174;2023-06-22T03:28:53;100699.84;;;19.71;84.43
50349;BME280;36250;48.740;22.174;2023-06-22T03:31:18;100701.34;;;19.82;83.99
50349;BME280;36250;48.740;22.174;2023-06-22T03:33:47;100709.47;;;19.92;83.16
50349;BME280;36250;48.740;22.174;2023-06-22T03:36:12;100704.84;;;19.88;82.54
50349;BME280;36250;48.740;22.174;2023-06-22T03:38:37;100703.59;;;19.80;82.13
50349;BME280;36250;48.740;22.174;2023-06-22T03:41:03;100710.53;;;19.78;82.34
50349;BME280;36250;48.740;22.174;2023-06-22T03:43:28;100700.75;;;19.85;82.31
50349;BME280;36250;48.740;22.174;2023-06-22T03:45:53;100705.13;;;19.86;82.36
50349;BME280;36250;48.740;22.174;2023-06-22T03:48:19;100700.06;;;19.93;82.55
50349;BME280;36250;48.740;22.174;2023-06-22T03:50:44;100700.41;;;20.05;82.23
50349;BME280;36250;48.740;22.174;2023-06-22T03:53:10;100700.25;;;20.15;82.05
50349;BME280;36250;48.740;22.174;2023-06-22T03:55:36;100705.97;;;20.24;81.64
50349;BME280;36250;48.740;22.174;2023-06-22T03:58:01;100711.00;;;20.36;80.96
50349;BME280;36250;48.740;22.174;2023-06-22T04:00:31;100712.88;;;20.40;80.31
50349;BME280;36250;48.740;22.174;2023-06-22T04:02:56;100705.31;;;20.46;79.99
50349;BME280;36250;48.740;22.174;2023-06-22T04:05:22;100699.59;;;20.56;79.68
50349;BME280;36250;48.740;22.174;2023-06-22T04:07:48;100701.66;;;20.64;78.99
50349;BME280;36250;48.740;22.174;2023-06-22T04:10:14;100695.72;;;20.70;78.64
50349;BME280;36250;48.740;22.174;2023-06-22T04:12:40;100710.72;;;20.83;78.36
50349;BME280;36250;48.740;22.174;2023-06-22T04:15:05;100704.63;;;20.81;78.22
50349;BME280;36250;48.740;22.174;2023-06-22T04:17:31;100699.09;;;20.81;78.69
50349;BME280;36250;48.740;22.174;2023-06-22T04:19:56;100702.31;;;20.88;78.66
50349;BME280;36250;48.740;22.174;2023-06-22T04:22:22;100709.50;;;21.03;78.68
50349;BME280;36250;48.740;22.174;2023-06-22T04:24:47;100709.00;;;21.14;78.24
50349;BME280;36250;48.740;22.174;2023-06-22T04:27:12;100712.59;;;21.28;77.55
50349;BME280;36250;48.740;22.174;2023-06-22T04:29:38;100707.44;;;21.35;77.02
50349;BME280;36250;48.740;22.174;2023-06-22T04:32:08;100708.38;;;21.44;76.74
50349;BME280;36250;48.740;22.174;2023-06-22T04:34:34;100721.38;;;21.57;76.40
50349;BME280;36250;48.740;22.174;2023-06-22T04:36:59;100716.44;;;21.68;75.18
50349;BME280;36250;48.740;22.174;2023-06-22T04:39:24;100718.28;;;21.73;75.41
50349;BME280;36250;48.740;22.174;2023-06-22T04:41:52;100717.03;;;21.79;76.14
50349;BME280;36250;48.740;22.174;2023-06-22T04:44:18;100715.69;;;21.90;75.70
50349;BME280;36250;48.740;22.174;2023-06-22T04:47:00;100715.25;;;21.96;76.16
50349;BME280;36250;48.740;22.174;2023-06-22T04:49:27;100719.84;;;22.01;76.54
50349;BME280;36250;48.740;22.174;2023-06-22T04:52:02;100716.97;;;22.06;77.38
50349;BME280;36250;48.740;22.174;2023-06-22T04:54:27;100716.53;;;22.12;77.90
50349;BME280;36250;48.740;22.174;2023-06-22T04:56:53;100718.03;;;22.18;77.95
50349;BME280;36250;48.740;22.174;2023-06-22T04:59:29;100719.13;;;22.31;77.45
50349;BME280;36250;48.740;22.174;2023-06-22T05:01:56;100720.31;;;22.39;77.33
50349;BME280;36250;48.740;22.174;2023-06-22T05:04:25;100714.69;;;22.52;76.76
50349;BME280;36250;48.740;22.174;2023-06-22T05:06:51;100715.69;;;22.56;76.27
50349;BME280;36250;48.740;22.174;2023-06-22T05:09:16;100715.47;;;22.66;76.15
50349;BME280;36250;48.740;22.174;2023-06-22T05:11:45;100709.13;;;22.74;76.09
50349;BME280;36250;48.740;22.174;2023-06-22T05:14:11;100710.63;;;22.80;75.82
50349;BME280;36250;48.740;22.174;2023-06-22T05:16:37;100713.16;;;22.91;75.72
50349;BME280;36250;48.740;22.174;2023-06-22T05:19:03;100713.16;;;22.99;75.39
50349;BME280;36250;48.740;22.174;2023-06-22T05:21:29;100714.84;;;23.09;76.01
50349;BME280;36250;48.740;22.174;2023-06-22T05:23:55;100714.88;;;23.17;75.78
50349;BME280;36250;48.740;22.174;2023-06-22T05:26:25;100711.16;;;23.30;74.95
50349;BME280;36250;48.740;22.174;2023-06-22T05:28:51;100712.19;;;23.43;74.35
50349;BME280;36250;48.740;22.174;2023-06-22T05:31:17;100714.47;;;23.41;73.57
50349;BME280;36250;48.740;22.174;2023-06-22T05:33:45;100721.47;;;23.30;74.53
50349;BME280;36250;48.740;22.174;2023-06-22T05:36:10;100722.00;;;23.40;73.76
50349;BME280;36250;48.740;22.174;2023-06-22T05:38:38;100725.59;;;23.41;73.76
50349;BME280;36250;48.740;22.174;2023-06-22T05:41:03;100728.00;;;23.34;73.56
50349;BME280;36250;48.740;22.174;2023-06-22T05:43:29;100725.22;;;23.34;73.06
50349;BME280;36250;48.740;22.174;2023-06-22T05:45:54;100730.59;;;23.30;74.08
50349;BME280;36250;48.740;22.174;2023-06-22T05:48:20;100730.19;;;23.37;73.23
50349;BME280;36250;48.740;22.174;2023-06-22T05:50:45;100730.56;;;23.61;72.36
50349;BME280;36250;48.740;22.174;2023-06-22T05:53:11;100728.28;;;23.80;72.86
50349;BME280;36250;48.740;22.174;2023-06-22T05:55:36;100731.91;;;24.06;71.13
50349;BME280;36250;48.740;22.174;2023-06-22T05:58:02;100741.75;;;24.12;70.26
50349;BME280;36250;48.740;22.174;2023-06-22T06:00:28;100741.91;;;24.16;70.89
50349;BME280;36250;48.740;22.174;2023-06-22T06:02:54;100746.00;;;24.36;69.77
50349;BME280;36250;48.740;22.174;2023-06-22T06:05:19;100740.41;;;24.53;69.09
50349;BME280;36250;48.740;22.174;2023-06-22T06:07:46;100742.84;;;24.71;64.77
50349;BME280;36250;48.740;22.174;2023-06-22T06:10:12;100737.44;;;24.84;63.98
50349;BME280;36250;48.740;22.174;2023-06-22T06:12:38;100744.91;;;25.00;63.45
50349;BME280;36250;48.740;22.174;2023-06-22T06:15:04;100744.19;;;25.20;62.32
50349;BME280;36250;48.740;22.174;2023-06-22T06:17:30;100751.19;;;25.26;62.27
50349;BME280;36250;48.740;22.174;2023-06-22T06:19:55;100746.53;;;25.48;64.33
50349;BME280;36250;48.740;22.174;2023-06-22T06:22:21;100751.09;;;25.52;62.71
50349;BME280;36250;48.740;22.174;2023-06-22T06:24:49;100749.81;;;25.41;63.67
50349;BME280;36250;48.740;22.174;2023-06-22T06:27:14;100761.72;;;25.59;64.32
50349;BME280;36250;48.740;22.174;2023-06-22T06:29:39;100763.84;;;25.62;64.71
50349;BME280;36250;48.740;22.174;2023-06-22T06:32:05;100759.66;;;25.47;63.68
50349;BME280;36250;48.740;22.174;2023-06-22T06:34:31;100764.91;;;25.40;63.50
50349;BME280;36250;48.740;22.174;2023-06-22T06:36:56;100764.81;;;25.28;63.64
50349;BME280;36250;48.740;22.174;2023-06-22T06:39:21;100757.56;;;25.35;63.90
50349;BME280;36250;48.740;22.174;2023-06-22T06:41:47;100763.38;;;25.60;63.33
50349;BME280;36250;48.740;22.174;2023-06-22T06:44:12;100757.00;;;25.51;63.54
50349;BME280;36250;48.740;22.174;2023-06-22T06:46:38;100758.47;;;25.57;62.99
50349;BME280;36250;48.740;22.174;2023-06-22T06:49:03;100759.13;;;25.54;63.24
50349;BME280;36250;48.740;22.174;2023-06-22T06:51:28;100760.00;;;25.46;64.75
50349;BME280;36250;48.740;22.174;2023-06-22T06:53:54;100752.13;;;25.48;63.78
50349;BME280;36250;48.740;22.174;2023-06-22T06:56:19;100762.38;;;25.56;62.23
50349;BME280;36250;48.740;22.174;2023-06-22T06:58:45;100755.09;;;25.72;63.25
50349;BME280;36250;48.740;22.174;2023-06-22T07:01:13;100751.91;;;25.82;64.49
50349;BME280;36250;48.740;22.174;2023-06-22T07:03:39;100757.13;;;25.83;65.55
50349;BME280;36250;48.740;22.174;2023-06-22T07:06:04;100752.03;;;25.85;65.23
50349;BME280;36250;48.740;22.174;2023-06-22T07:08:29;100745.84;;;25.80;65.17
50349;BME280;36250;48.740;22.174;2023-06-22T07:10:55;100747.28;;;25.86;64.37
50349;BME280;36250;48.740;22.174;2023-06-22T07:13:20;100743.22;;;26.04;65.32
50349;BME280;36250;48.740;22.174;2023-06-22T07:15:46;100741.22;;;26.04;63.01
50349;BME280;36250;48.740;22.174;2023-06-22T07:18:11;100739.53;;;26.12;63.83
50349;BME280;36250;48.740;22.174;2023-06-22T07:20:36;100740.91;;;26.27;64.07
50349;BME280;36250;48.740;22.174;2023-06-22T07:23:02;100747.34;;;26.39;63.30
50349;BME280;36250;48.740;22.174;2023-06-22T07:25:27;100744.81;;;26.46;62.75
50349;BME280;36250;48.740;22.174;2023-06-22T07:28:01;100742.81;;;26.67;63.26
50349;BME280;36250;48.740;22.174;2023-06-22T07:30:27;100741.59;;;26.56;61.40
50349;BME280;36250;48.740;22.174;2023-06-22T07:32:53;100736.28;;;26.63;62.32
50349;BME280;36250;48.740;22.174;2023-06-22T07:35:19;100741.91;;;26.76;62.09
50349;BME280;36250;48.740;22.174;2023-06-22T07:37:44;100741.47;;;26.86;61.27
50349;BME280;36250;48.740;22.174;2023-06-22T07:40:10;100743.00;;;26.95;60.51
50349;BME280;36250;48.740;22.174;2023-06-22T07:42:36;100748.06;;;27.02;60.34
50349;BME280;36250;48.740;22.174;2023-06-22T07:45:03;100740.81;;;27.01;60.84
50349;BME280;36250;48.740;22.174;2023-06-22T07:47:29;100744.50;;;26.81;59.99
50349;BME280;36250;48.740;22.174;2023-06-22T07:49:55;100761.38;;;26.51;61.44
50349;BME280;36250;48.740;22.174;2023-06-22T07:52:23;100761.09;;;26.44;61.97
50349;BME280;36250;48.740;22.174;2023-06-22T07:54:48;100773.66;;;26.38;62.50
50349;BME280;36250;48.740;22.174;2023-06-22T07:57:13;100774.28;;;26.23;62.45
50349;BME280;36250;48.740;22.174;2023-06-22T07:59:39;100775.88;;;26.24;62.48
50349;BME280;36250;48.740;22.174;2023-06-22T08:02:05;100765.91;;;26.23;63.97
50349;BME280;36250;48.740;22.174;2023-06-22T08:04:30;100765.91;;;26.23;62.82
50349;BME280;36250;48.740;22.174;2023-06-22T08:06:59;100762.44;;;26.26;62.84
50349;BME280;36250;48.740;22.174;2023-06-22T08:09:25;100771.34;;;26.40;62.31
50349;BME280;36250;48.740;22.174;2023-06-22T08:11:50;100774.44;;;26.59;62.54
50349;BME280;36250;48.740;22.174;2023-06-22T08:14:15;100768.75;;;26.89;62.47
50349;BME280;36250;48.740;22.174;2023-06-22T08:16:41;100762.81;;;27.02;59.79
50349;BME280;36250;48.740;22.174;2023-06-22T08:19:07;100767.88;;;26.76;61.18
50349;BME280;36250;48.740;22.174;2023-06-22T08:21:32;100764.59;;;26.74;60.66
50349;BME280;36250;48.740;22.174;2023-06-22T08:23:58;100753.78;;;26.72;61.76
50349;BME280;36250;48.740;22.174;2023-06-22T08:26:23;100760.56;;;26.84;61.65
50349;BME280;36250;48.740;22.174;2023-06-22T08:28:49;100758.50;;;27.05;60.90
50349;BME280;36250;48.740;22.174;2023-06-22T08:31:14;100759.13;;;27.34;59.46
50349;BME280;36250;48.740;22.174;2023-06-22T08:33:40;100756.59;;;27.54;58.36
50349;BME280;36250;48.740;22.174;2023-06-22T08:36:06;100756.00;;;27.72;57.06
50349;BME280;36250;48.740;22.174;2023-06-22T08:38:31;100760.41;;;27.85;57.39
50349;BME280;36250;48.740;22.174;2023-06-22T08:40:57;100756.91;;;28.00;57.77
50349;BME280;36250;48.740;22.174;2023-06-22T08:43:22;100756.31;;;28.19;56.80
50349;BME280;36250;48.740;22.174;2023-06-22T08:45:48;100751.16;;;28.21;55.95
50349;BME280;36250;48.740;22.174;2023-06-22T08:48:13;100753.59;;;28.23;56.09
50349;BME280;36250;48.740;22.174;2023-06-22T08:50:39;100752.97;;;28.02;55.43
50349;BME280;36250;48.740;22.174;2023-06-22T08:53:05;100749.72;;;27.63;55.52
50349;BME280;36250;48.740;22.174;2023-06-22T08:55:31;100746.13;;;27.63;55.55
50349;BME280;36250;48.740;22.174;2023-06-22T08:57:56;100738.28;;;27.68;55.21
50349;BME280;36250;48.740;22.174;2023-06-22T09:00:22;100746.78;;;27.84;55.64
50349;BME280;36250;48.740;22.174;2023-06-22T09:02:47;100749.56;;;28.08;56.71
50349;BME280;36250;48.740;22.174;2023-06-22T09:05:13;100754.03;;;28.25;56.05
50349;BME280;36250;48.740;22.174;2023-06-22T09:07:38;100754.94;;;28.41;54.92
50349;BME280;36250;48.740;22.174;2023-06-22T09:10:05;100750.44;;;28.24;54.46
50349;BME280;36250;48.740;22.174;2023-06-22T09:12:30;100757.94;;;27.96;57.37
50349;BME280;36250;48.740;22.174;2023-06-22T09:14:56;100751.13;;;27.69;57.75
50349;BME280;36250;48.740;22.174;2023-06-22T09:17:22;100756.25;;;27.67;56.75
50349;BME280;36250;48.740;22.174;2023-06-22T09:19:47;100751.69;;;27.75;57.50
50349;BME280;36250;48.740;22.174;2023-06-22T09:22:13;100752.00;;;27.97;59.06
50349;BME280;36250;48.740;22.174;2023-06-22T09:24:39;100752.25;;;28.05;58.20
50349;BME280;36250;48.740;22.174;2023-06-22T09:27:05;100760.88;;;27.99;58.41
50349;BME280;36250;48.740;22.174;2023-06-22T09:29:30;100750.50;;;28.00;57.84
50349;BME280;36250;48.740;22.174;2023-06-22T09:31:58;100752.22;;;28.17;57.99
50349;BME280;36250;48.740;22.174;2023-06-22T09:34:24;100744.72;;;28.21;56.47
50349;BME280;36250;48.740;22.174;2023-06-22T09:36:49;100739.19;;;27.96;56.52
50349;BME280;36250;48.740;22.174;2023-06-22T09:39:14;100740.09;;;28.13;56.74
50349;BME280;36250;48.740;22.174;2023-06-22T09:41:40;100737.94;;;28.34;56.00
50349;BME280;36250;48.740;22.174;2023-06-22T09:44:05;100738.19;;;28.29;54.77
50349;BME280;36250;48.740;22.174;2023-06-22T09:46:31;100740.56;;;28.42;55.42
50349;BME280;36250;48.740;22.174;2023-06-22T09:48:56;100736.19;;;28.57;54.06
50349;BME280;36250;48.740;22.174;2023-06-22T09:51:22;100736.06;;;28.81;55.17
50349;BME280;36250;48.740;22.174;2023-06-22T09:53:49;100733.94;;;28.90;52.53
50349;BME280;36250;48.740;22.174;2023-06-22T09:56:14;100735.66;;;28.95;53.60
50349;BME280;36250;48.740;22.174;2023-06-22T09:58:42;100731.66;;;29.11;52.43
50349;BME280;36250;48.740;22.174;2023-06-22T10:01:07;100736.13;;;29.44;53.32
50349;BME280;36250;48.740;22.174;2023-06-22T10:03:33;100741.41;;;29.80;52.54
50349;BME280;36250;48.740;22.174;2023-06-22T10:05:58;100736.91;;;29.60;50.44
50349;BME280;36250;48.740;22.174;2023-06-22T10:08:23;100742.84;;;29.74;50.99
50349;BME280;36250;48.740;22.174;2023-06-22T10:10:49;100737.00;;;29.98;51.02
50349;BME280;36250;48.740;22.174;2023-06-22T10:13:14;100746.63;;;30.16;49.80
50349;BME280;36250;48.740;22.174;2023-06-22T10:15:40;100744.97;;;29.96;48.88
50349;BME280;36250;48.740;22.174;2023-06-22T10:18:05;100744.38;;;29.71;50.73
50349;BME280;36250;48.740;22.174;2023-06-22T10:20:31;100743.50;;;29.52;51.32
50349;BME280;36250;48.740;22.174;2023-06-22T10:22:56;100741.91;;;29.51;52.72
50349;BME280;36250;48.740;22.174;2023-06-22T10:25:22;100735.81;;;29.80;51.74
50349;BME280;36250;48.740;22.174;2023-06-22T10:27:48;100729.09;;;29.84;50.02
50349;BME280;36250;48.740;22.174;2023-06-22T10:30:13;100742.25;;;30.00;48.58
50349;BME280;36250;48.740;22.174;2023-06-22T10:32:39;100731.88;;;29.69;50.91
50349;BME280;36250;48.740;22.174;2023-06-22T10:35:06;100731.59;;;29.89;50.11
50349;BME280;36250;48.740;22.174;2023-06-22T10:37:31;100730.63;;;29.82;50.13
50349;BME280;36250;48.740;22.174;2023-06-22T10:39:57;100731.81;;;29.65;53.73
50349;BME280;36250;48.740;22.174;2023-06-22T10:42:22;100733.97;;;29.87;51.58
50349;BME280;36250;48.740;22.174;2023-06-22T10:44:48;100738.56;;;29.96;51.18
50349;BME280;36250;48.740;22.174;2023-06-22T10:47:13;100732.16;;;29.64;50.39
50349;BME280;36250;48.740;22.174;2023-06-22T10:49:39;100730.91;;;29.77;49.98
50349;BME280;36250;48.740;22.174;2023-06-22T10:52:07;100728.41;;;29.91;49.15
50349;BME280;36250;48.740;22.174;2023-06-22T10:54:33;100725.31;;;29.96;50.17
50349;BME280;36250;48.740;22.174;2023-06-22T10:56:59;100728.47;;;30.29;51.17
50349;BME280;36250;48.740;22.174;2023-06-22T10:59:24;100719.81;;;30.38;49.85
50349;BME280;36250;48.740;22.174;2023-06-22T11:01:51;100717.00;;;30.19;50.18
50349;BME280;36250;48.740;22.174;2023-06-22T11:04:16;100715.47;;;30.40;50.68
50349;BME280;36250;48.740;22.174;2023-06-22T11:06:43;100716.19;;;30.37;50.07
50349;BME280;36250;48.740;22.174;2023-06-22T11:09:08;100718.53;;;30.54;50.21
50349;BME280;36250;48.740;22.174;2023-06-22T11:11:34;100709.91;;;30.63;48.53
50349;BME280;36250;48.740;22.174;2023-06-22T11:13:59;100713.97;;;30.66;47.96
50349;BME280;36250;48.740;22.174;2023-06-22T11:16:24;100709.00;;;31.01;48.92
50349;BME280;36250;48.740;22.174;2023-06-22T11:18:50;100700.94;;;30.99;46.71
50349;BME280;36250;48.740;22.174;2023-06-22T11:21:15;100702.13;;;30.98;48.59
50349;BME280;36250;48.740;22.174;2023-06-22T11:23:42;100697.94;;;31.11;48.09
50349;BME280;36250;48.740;22.174;2023-06-22T11:26:07;100703.03;;;31.29;48.52
50349;BME280;36250;48.740;22.174;2023-06-22T11:28:33;100695.13;;;31.60;47.53
50349;BME280;36250;48.740;22.174;2023-06-22T11:30:58;100703.22;;;31.62;46.24
50349;BME280;36250;48.740;22.174;2023-06-22T11:33:24;100693.72;;;31.47;45.79
50349;BME280;36250;48.740;22.174;2023-06-22T11:35:49;100691.56;;;31.41;47.11
50349;BME280;36250;48.740;22.174;2023-06-22T11:38:15;100683.25;;;31.48;46.24
50349;BME280;36250;48.740;22.174;2023-06-22T11:40:40;100686.75;;;31.64;45.63
50349;BME280;36250;48.740;22.174;2023-06-22T11:43:05;100688.94;;;31.77;46.05
50349;BME280;36250;48.740;22.174;2023-06-22T11:45:31;100687.31;;;31.76;46.10
50349;BME280;36250;48.740;22.174;2023-06-22T11:47:56;100682.38;;;31.70;46.46
50349;BME280;36250;48.740;22.174;2023-06-22T11:50:22;100687.66;;;31.45;46.35
50349;BME280;36250;48.740;22.174;2023-06-22T11:52:47;100679.09;;;31.15;47.39
50349;BME280;36250;48.740;22.174;2023-06-22T11:55:12;100682.03;;;30.77;47.52
50349;BME280;36250;48.740;22.174;2023-06-22T11:57:39;100682.06;;;31.00;45.61
50349;BME280;36250;48.740;22.174;2023-06-22T12:00:16;100677.53;;;31.18;46.94
50349;BME280;36250;48.740;22.174;2023-06-22T12:02:43;100665.72;;;31.58;45.29
50349;BME280;36250;48.740;22.174;2023-06-22T12:05:10;100658.72;;;32.01;45.15
50349;BME280;36250;48.740;22.174;2023-06-22T12:07:35;100661.44;;;32.27;46.07
50349;BME280;36250;48.740;22.174;2023-06-22T12:10:01;100672.66;;;32.57;44.17
50349;BME280;36250;48.740;22.174;2023-06-22T12:12:27;100666.03;;;32.82;43.37
50349;BME280;36250;48.740;22.174;2023-06-22T12:14:52;100659.22;;;32.83;42.54
50349;BME280;36250;48.740;22.174;2023-06-22T12:17:17;100658.22;;;33.05;42.63
50349;BME280;36250;48.740;22.174;2023-06-22T12:19:43;100658.69;;;33.15;42.96
50349;BME280;36250;48.740;22.174;2023-06-22T12:22:08;100653.50;;;33.20;43.93
50349;BME280;36250;48.740;22.174;2023-06-22T12:24:33;100659.56;;;33.22;44.06
50349;BME280;36250;48.740;22.174;2023-06-22T12:26:59;100644.13;;;33.09;43.57
50349;BME280;36250;48.740;22.174;2023-06-22T12:29:24;100639.06;;;32.81;44.78
50349;BME280;36250;48.740;22.174;2023-06-22T12:31:49;100643.56;;;32.49;44.30
50349;BME280;36250;48.740;22.174;2023-06-22T12:34:15;100631.34;;;32.38;44.93
50349;BME280;36250;48.740;22.174;2023-06-22T12:36:40;100635.50;;;32.11;44.59
50349;BME280;36250;48.740;22.174;2023-06-22T12:39:06;100640.09;;;31.96;45.38